createdAt,value
2022-08-26T00:01:55.722Z,2.55
2022-08-26T00:04:25.453Z,2.10
2022-08-26T00:06:53.922Z,2.45
2022-08-26T00:09:21.432Z,2.00
2022-08-26T00:11:48.596Z,2.08
2022-08-26T00:14:16.233Z,1.90
2022-08-26T00:16:47.826Z,2.22
2022-08-26T00:19:20.199Z,2.72
2022-08-26T00:21:50.379Z,2.33
2022-08-26T00:24:21.586Z,2.70
2022-08-26T00:26:49.302Z,2.20
2022-08-26T00:29:16.040Z,2.40
2022-08-26T00:31:45.300Z,2.22
2022-08-26T00:34:12.841Z,2.20
2022-08-26T00:36:40.926Z,2.20
2022-08-26T00:39:07.887Z,2.00
2022-08-26T00:41:39.973Z,2.33
2022-08-26T00:44:08.051Z,2.70
2022-08-26T00:46:47.267Z,2.22
2022-08-26T00:49:30.568Z,2.25
2022-08-26T00:52:03.576Z,2.20
2022-08-26T00:54:38.193Z,2.30
2022-08-26T00:57:16.752Z,1.85
2022-08-26T01:02:20.164Z,2.03
2022-08-26T01:04:52.642Z,3.65
2022-08-26T01:07:23.460Z,2.17
2022-08-26T01:09:50.228Z,1.75
2022-08-26T01:12:17.207Z,1.92
2022-08-26T01:14:49.614Z,1.95
2022-08-26T01:17:16.475Z,2.47
2022-08-26T01:19:51.051Z,2.40
2022-08-26T01:23:03.336Z,2.20
2022-08-26T01:25:33.827Z,2.05
2022-08-26T01:28:07.876Z,2.60
2022-08-26T01:30:36.775Z,2.57
2022-08-26T01:33:08.027Z,1.95
2022-08-26T01:35:34.856Z,1.98
2022-08-26T01:38:02.332Z,2.40
2022-08-26T01:40:33.894Z,2.38
2022-08-26T01:43:02.342Z,1.92
2022-08-26T01:45:33.354Z,2.30
2022-08-26T01:48:04.584Z,2.15
2022-08-26T01:50:37.748Z,2.40
2022-08-26T01:53:09.762Z,2.40
2022-08-26T01:55:41.740Z,2.30
2022-08-26T01:58:26.444Z,2.08
2022-08-26T02:03:22.388Z,1.90
2022-08-26T02:05:58.770Z,2.38
2022-08-26T02:08:34.896Z,3.40
2022-08-26T02:11:02.239Z,2.00
2022-08-26T02:13:31.642Z,2.40
2022-08-26T02:16:01.049Z,2.15
2022-08-26T02:18:30.466Z,2.50
2022-08-26T02:20:57.303Z,2.50
2022-08-26T02:23:24.715Z,2.78
2022-08-26T02:26:05.843Z,2.45
2022-08-26T02:28:38.871Z,2.10
2022-08-26T02:31:05.900Z,2.50
2022-08-26T02:33:34.780Z,2.72
2022-08-26T02:36:05.048Z,5.78
2022-08-26T02:38:34.836Z,2.90
2022-08-26T02:41:04.980Z,2.28
2022-08-26T02:43:34.789Z,2.58
2022-08-26T02:46:02.295Z,2.08
2022-08-26T02:48:30.293Z,2.35
2022-08-26T02:50:59.255Z,2.75
2022-08-26T02:53:28.051Z,1.70
2022-08-26T02:55:58.743Z,1.83
2022-08-26T02:58:26.519Z,2.40
2022-08-26T03:00:53.906Z,4.85
2022-08-26T03:03:23.504Z,2.30
2022-08-26T03:05:50.600Z,2.05
2022-08-26T03:08:18.083Z,2.22
2022-08-26T03:10:46.576Z,2.00
2022-08-26T03:13:15.614Z,1.77
2022-08-26T03:15:42.260Z,1.85
2022-08-26T03:18:09.571Z,3.33
2022-08-26T03:20:37.043Z,2.40
2022-08-26T03:23:03.730Z,1.92
2022-08-26T03:25:31.042Z,2.10
2022-08-26T03:27:57.724Z,2.28
2022-08-26T03:30:45.459Z,2.05
2022-08-26T03:33:13.753Z,2.30
2022-08-26T03:35:43.751Z,1.77
2022-08-26T03:38:10.964Z,2.17
2022-08-26T03:40:39.260Z,2.40
2022-08-26T03:43:09.826Z,2.10
2022-08-26T03:45:37.670Z,1.80
2022-08-26T03:48:05.093Z,2.88
2022-08-26T03:50:37.598Z,1.90
2022-08-26T03:53:07.503Z,5.82
2022-08-26T03:55:41.900Z,2.65
2022-08-26T03:58:12.062Z,2.20
2022-08-26T04:00:38.861Z,3.17
2022-08-26T04:03:05.920Z,2.53
2022-08-26T04:05:37.376Z,2.47
2022-08-26T04:08:06.232Z,2.60
2022-08-26T04:10:32.929Z,2.60
2022-08-26T04:13:02.589Z,2.60
2022-08-26T04:15:31.512Z,2.70
2022-08-26T04:17:58.329Z,3.00
2022-08-26T04:20:26.205Z,2.10
2022-08-26T04:22:52.974Z,2.58
2022-08-26T04:25:20.536Z,2.33
2022-08-26T04:27:47.466Z,2.67
2022-08-26T04:30:15.846Z,2.50
2022-08-26T04:32:43.521Z,2.08
2022-08-26T04:35:10.355Z,2.58
2022-08-26T04:37:37.556Z,2.40
2022-08-26T04:40:05.938Z,2.72
2022-08-26T04:42:33.484Z,2.03
2022-08-26T04:45:01.096Z,2.20
2022-08-26T04:47:32.105Z,2.53
2022-08-26T04:50:00.315Z,2.80
2022-08-26T04:52:28.997Z,2.20
2022-08-26T04:54:55.621Z,2.10
2022-08-26T04:57:23.380Z,2.47
2022-08-26T04:59:50.042Z,3.20
2022-08-26T05:02:16.775Z,2.95
2022-08-26T05:04:43.729Z,2.60
2022-08-26T05:07:10.847Z,2.58
2022-08-26T05:09:40.372Z,2.67
2022-08-26T05:12:07.404Z,3.03
2022-08-26T05:14:36.085Z,2.70
2022-08-26T05:17:04.730Z,2.85
2022-08-26T05:19:31.673Z,2.65
2022-08-26T05:22:02.120Z,2.67
2022-08-26T05:24:30.264Z,2.78
2022-08-26T05:26:57.335Z,2.95
2022-08-26T05:29:26.435Z,2.75
2022-08-26T05:31:53.523Z,3.13
2022-08-26T05:34:22.739Z,2.58
2022-08-26T05:36:52.688Z,3.20
2022-08-26T05:39:19.713Z,3.08
2022-08-26T05:41:46.448Z,2.70
2022-08-26T05:44:15.867Z,3.28
2022-08-26T05:46:44.830Z,3.55
2022-08-26T05:49:14.554Z,3.20
2022-08-26T05:51:45.251Z,3.08
2022-08-26T05:54:13.284Z,3.05
2022-08-26T05:56:40.104Z,4.22
2022-08-26T05:59:14.639Z,3.28
2022-08-26T06:01:42.628Z,3.30
2022-08-26T06:04:10.296Z,3.30
2022-08-26T06:06:41.238Z,3.50
2022-08-26T06:09:11.063Z,3.13
2022-08-26T06:11:38.914Z,3.13
2022-08-26T06:14:07.789Z,3.08
2022-08-26T06:16:38.694Z,2.58
2022-08-26T06:19:11.530Z,3.72
2022-08-26T06:21:40.467Z,2.55
2022-08-26T06:24:31.177Z,2.42
2022-08-26T06:27:04.360Z,2.78
2022-08-26T06:29:34.545Z,2.28
2022-08-26T06:32:03.876Z,2.08
2022-08-26T06:34:30.968Z,2.17
2022-08-26T06:37:01.952Z,2.15
2022-08-26T06:39:32.605Z,2.00
2022-08-26T06:42:00.416Z,3.25
2022-08-26T06:44:29.519Z,2.13
2022-08-26T06:46:56.168Z,1.80
2022-08-26T06:49:27.468Z,1.60
2022-08-26T06:52:00.340Z,1.48
2022-08-26T06:54:32.192Z,1.80
2022-08-26T06:56:59.105Z,1.52
2022-08-26T06:59:26.176Z,1.77
2022-08-26T07:01:53.500Z,1.42
2022-08-26T07:04:22.376Z,1.80
2022-08-26T07:06:52.666Z,1.75
2022-08-26T07:09:22.058Z,1.30
2022-08-26T07:11:49.801Z,1.30
2022-08-26T07:14:19.326Z,1.73
2022-08-26T07:16:48.420Z,1.20
2022-08-26T07:19:15.733Z,1.55
2022-08-26T07:21:44.348Z,1.70
2022-08-26T07:24:11.536Z,1.70
2022-08-26T07:26:42.836Z,1.50
2022-08-26T07:29:12.493Z,1.48
2022-08-26T07:31:42.750Z,1.45
2022-08-26T07:34:10.632Z,2.17
2022-08-26T07:36:37.310Z,1.70
2022-08-26T07:39:04.707Z,1.20
2022-08-26T07:41:31.463Z,1.40
2022-08-26T07:43:58.913Z,2.72
2022-08-26T07:46:27.513Z,1.40
2022-08-26T07:48:58.517Z,1.40
2022-08-26T07:51:28.073Z,1.70
2022-08-26T07:53:55.499Z,1.13
2022-08-26T07:56:23.454Z,1.63
2022-08-26T07:58:53.845Z,1.80
2022-08-26T08:01:23.988Z,1.75
2022-08-26T08:03:51.889Z,1.38
2022-08-26T08:06:20.128Z,1.70
2022-08-26T08:08:47.432Z,1.40
2022-08-26T08:11:14.757Z,1.30
2022-08-26T08:13:41.795Z,1.20
2022-08-26T08:16:12.447Z,1.40
2022-08-26T08:18:42.253Z,1.42
2022-08-26T08:21:21.350Z,1.38
2022-08-26T08:23:51.909Z,1.48
2022-08-26T08:26:18.884Z,1.50
2022-08-26T08:28:48.803Z,1.40
2022-08-26T08:34:21.465Z,1.15
2022-08-26T08:36:49.023Z,1.67
2022-08-26T08:39:19.219Z,1.58
2022-08-26T08:42:11.848Z,1.50
2022-08-26T08:44:51.925Z,1.42
2022-08-26T08:47:48.296Z,1.15
2022-08-26T08:50:48.113Z,1.27
2022-08-26T08:53:30.913Z,1.60
2022-08-26T08:56:24.832Z,1.48
2022-08-26T08:58:57.449Z,1.30
2022-08-26T09:01:45.036Z,1.40
2022-08-26T09:04:37.480Z,1.35
2022-08-26T09:07:08.876Z,1.90
2022-08-26T09:09:41.842Z,1.10
2022-08-26T09:12:14.952Z,1.23
2022-08-26T09:14:45.821Z,1.42
2022-08-26T09:17:35.605Z,1.00
2022-08-26T09:20:25.983Z,0.95
2022-08-26T09:22:53.280Z,1.00
2022-08-26T09:25:22.286Z,1.23
2022-08-26T09:27:53.491Z,1.02
2022-08-26T09:30:35.358Z,1.23
2022-08-26T09:33:11.587Z,0.85
2022-08-26T09:35:41.240Z,1.13
2022-08-26T09:38:28.011Z,1.25
2022-08-26T09:41:01.803Z,1.00
2022-08-26T09:43:29.291Z,1.30
2022-08-26T09:46:15.300Z,0.90
2022-08-26T09:48:43.300Z,1.00
2022-08-26T09:51:26.514Z,1.00
2022-08-26T09:53:59.023Z,0.95
2022-08-26T09:56:34.760Z,1.10
2022-08-26T09:59:02.952Z,1.40
2022-08-26T10:01:42.175Z,1.40
2022-08-26T10:04:14.088Z,0.90
2022-08-26T10:06:57.240Z,1.10
2022-08-26T10:09:25.887Z,1.27
2022-08-26T10:11:59.119Z,1.10
2022-08-26T10:14:37.544Z,0.75
2022-08-26T10:17:14.570Z,1.10
2022-08-26T10:19:57.091Z,0.70
2022-08-26T10:22:50.155Z,0.82
2022-08-26T10:25:24.621Z,0.80
2022-08-26T10:28:19.520Z,0.85
2022-08-26T10:31:04.619Z,0.80
2022-08-26T10:33:33.638Z,0.90
2022-08-26T10:36:06.499Z,1.00
2022-08-26T10:38:37.742Z,0.70
2022-08-26T10:41:24.351Z,0.70
2022-08-26T10:43:56.401Z,0.80
2022-08-26T10:46:31.379Z,0.65
2022-08-26T10:49:06.960Z,0.90
2022-08-26T10:51:51.655Z,1.00
2022-08-26T10:54:40.817Z,0.60
2022-08-26T10:57:25.612Z,0.75
2022-08-26T11:00:34.993Z,0.57
2022-08-26T11:03:32.655Z,0.98
2022-08-26T11:06:21.779Z,0.88
2022-08-26T11:08:54.209Z,1.23
2022-08-26T11:11:40.792Z,0.50
2022-08-26T11:14:10.971Z,0.57
2022-08-26T11:16:42.850Z,0.65
2022-08-26T11:19:45.653Z,0.70
2022-08-26T11:22:31.246Z,0.65
2022-08-26T11:24:57.948Z,0.80
2022-08-26T11:27:26.032Z,0.60
2022-08-26T11:30:14.089Z,0.90
2022-08-26T11:32:41.253Z,0.60
2022-08-26T11:35:17.112Z,0.70
2022-08-26T11:38:04.287Z,0.60
2022-08-26T11:40:33.697Z,0.57
2022-08-26T11:43:12.289Z,0.60
2022-08-26T11:45:42.493Z,0.68
2022-08-26T11:48:28.289Z,0.47
2022-08-26T11:51:09.859Z,0.68
2022-08-26T11:53:40.876Z,0.60
2022-08-26T11:56:26.088Z,0.75
2022-08-26T11:58:58.357Z,0.57
2022-08-26T12:01:31.410Z,0.60
2022-08-26T12:03:59.728Z,0.50
2022-08-26T12:06:44.983Z,0.68
2022-08-26T12:11:48.048Z,0.98
2022-08-26T12:14:27.698Z,0.70
2022-08-26T12:16:54.888Z,0.63
2022-08-26T12:19:27.449Z,0.57
2022-08-26T12:22:06.688Z,0.70
2022-08-26T12:24:33.629Z,0.50
2022-08-26T12:27:14.438Z,0.90
2022-08-26T12:29:43.700Z,0.63
2022-08-26T12:32:18.436Z,0.73
2022-08-26T12:34:49.128Z,0.70
2022-08-26T12:37:16.305Z,0.63
2022-08-26T12:39:45.807Z,0.50
2022-08-26T12:42:12.359Z,0.63
2022-08-26T12:44:54.207Z,0.40
2022-08-26T12:47:35.149Z,0.40
2022-08-26T12:50:19.626Z,0.40
2022-08-26T12:53:09.722Z,0.50
2022-08-26T12:55:41.174Z,0.73
2022-08-26T12:58:16.674Z,0.85
2022-08-26T13:00:56.617Z,0.50
2022-08-26T13:03:35.268Z,0.68
2022-08-26T13:06:16.031Z,0.50
2022-08-26T13:08:55.195Z,0.60
2022-08-26T13:11:31.586Z,0.60
2022-08-26T13:14:06.947Z,0.60
2022-08-26T13:16:34.938Z,0.60
2022-08-26T13:19:10.467Z,0.60
2022-08-26T13:21:58.484Z,0.50
2022-08-26T13:24:35.641Z,0.60
2022-08-26T13:27:03.501Z,0.60
2022-08-26T13:29:30.184Z,0.65
2022-08-26T13:31:58.231Z,0.60
2022-08-26T13:34:25.280Z,0.68
2022-08-26T13:36:55.250Z,0.43
2022-08-26T13:39:22.911Z,0.52
2022-08-26T13:41:50.017Z,0.70
2022-08-26T13:44:17.223Z,0.73
2022-08-26T13:49:12.373Z,0.75
2022-08-26T13:51:39.971Z,0.80
2022-08-26T13:54:07.314Z,0.75
2022-08-26T13:56:34.956Z,0.75
2022-08-26T13:59:03.184Z,0.70
2022-08-26T14:01:31.443Z,0.60
2022-08-26T14:03:58.453Z,0.77
2022-08-26T14:06:25.661Z,0.60
2022-08-26T14:08:52.337Z,0.60
2022-08-26T14:11:21.473Z,0.50
2022-08-26T14:13:48.209Z,0.40
2022-08-26T14:16:25.941Z,0.50
2022-08-26T14:18:53.566Z,0.63
2022-08-26T14:21:20.940Z,0.70
2022-08-26T14:23:47.824Z,0.70
2022-08-26T14:26:28.747Z,0.55
2022-08-26T14:29:00.039Z,0.60
2022-08-26T14:31:29.427Z,0.50
2022-08-26T14:34:00.176Z,0.52
2022-08-26T14:36:31.955Z,0.80
2022-08-26T14:39:11.589Z,0.65
2022-08-26T14:41:53.709Z,0.68
2022-08-26T14:44:33.277Z,0.70
2022-08-26T14:47:02.441Z,0.70
2022-08-26T14:49:31.808Z,0.80
2022-08-26T14:51:59.477Z,0.60
2022-08-26T14:54:26.107Z,0.70
2022-08-26T14:56:59.428Z,0.85
2022-08-26T14:59:29.460Z,0.50
2022-08-26T15:01:59.236Z,0.70
2022-08-26T15:04:28.451Z,0.45
2022-08-26T15:06:56.868Z,0.68
2022-08-26T15:09:24.480Z,0.63
2022-08-26T15:11:53.110Z,0.70
2022-08-26T15:14:21.213Z,0.70
2022-08-26T15:16:55.882Z,0.68
2022-08-26T15:19:24.476Z,0.70
2022-08-26T15:21:51.972Z,0.60
2022-08-26T15:24:21.020Z,0.60
2022-08-26T15:26:48.377Z,0.80
2022-08-26T15:29:15.435Z,1.00
2022-08-26T15:31:43.132Z,0.47
2022-08-26T15:34:16.015Z,0.75
2022-08-26T15:36:45.018Z,0.77
2022-08-26T15:39:11.954Z,0.60
2022-08-26T15:41:38.863Z,0.45
2022-08-26T15:44:07.332Z,0.60
2022-08-26T15:46:35.056Z,0.60
2022-08-26T15:49:03.796Z,0.70
2022-08-26T15:51:45.408Z,0.73
2022-08-26T15:54:14.054Z,0.80
2022-08-26T15:56:40.724Z,0.65
2022-08-26T15:59:11.402Z,0.80
2022-08-26T16:01:41.312Z,0.60
2022-08-26T16:04:07.957Z,1.10
2022-08-26T16:06:37.048Z,0.60
2022-08-26T16:09:04.941Z,0.60
2022-08-26T16:11:31.564Z,0.73
2022-08-26T16:13:58.451Z,0.70
2022-08-26T16:16:25.117Z,0.77
2022-08-26T16:18:52.328Z,0.70
2022-08-26T16:21:22.176Z,0.50
2022-08-26T16:23:48.884Z,1.00
2022-08-26T16:26:23.939Z,0.52
2022-08-26T16:28:50.632Z,0.82
2022-08-26T16:31:19.508Z,0.82
2022-08-26T16:33:46.326Z,0.60
2022-08-26T16:36:14.148Z,0.70
2022-08-26T16:38:41.737Z,0.70
2022-08-26T16:41:08.637Z,0.80
2022-08-26T16:43:35.716Z,0.70
2022-08-26T16:46:04.928Z,0.80
2022-08-26T16:48:31.639Z,0.60
2022-08-26T16:51:00.460Z,0.93
2022-08-26T16:53:27.086Z,0.80
2022-08-26T16:55:53.728Z,0.70
2022-08-26T16:58:22.090Z,1.08
2022-08-26T17:00:49.197Z,1.00
2022-08-26T17:03:16.031Z,0.90
2022-08-26T17:05:45.132Z,0.65
2022-08-26T17:08:14.524Z,1.10
2022-08-26T17:10:51.774Z,0.60
2022-08-26T17:13:35.108Z,0.90
2022-08-26T17:16:04.982Z,0.82
2022-08-26T17:18:33.507Z,1.60
2022-08-26T17:21:03.195Z,2.08
2022-08-26T17:23:29.961Z,2.35
2022-08-26T17:25:56.828Z,3.40
2022-08-26T17:28:23.472Z,2.55
2022-08-26T17:30:50.195Z,3.03
2022-08-26T17:33:17.267Z,1.85
2022-08-26T17:35:48.897Z,1.52
2022-08-26T17:38:15.555Z,1.58
2022-08-26T17:40:42.262Z,1.30
2022-08-26T17:43:12.170Z,1.38
2022-08-26T17:45:40.501Z,1.45
2022-08-26T17:48:08.264Z,1.70
2022-08-26T17:50:35.785Z,1.50
2022-08-26T17:53:02.523Z,1.00
2022-08-26T17:55:29.263Z,1.25
2022-08-26T17:57:55.999Z,0.98
2022-08-26T18:00:26.608Z,1.10
2022-08-26T18:02:54.812Z,1.50
2022-08-26T18:05:22.385Z,1.30
2022-08-26T18:07:51.488Z,1.10
2022-08-26T18:10:20.369Z,1.38
2022-08-26T18:12:47.544Z,1.20
2022-08-26T18:15:16.515Z,1.50
2022-08-26T18:17:44.024Z,1.30
2022-08-26T18:20:15.413Z,1.30
2022-08-26T18:22:43.411Z,1.10
2022-08-26T18:25:10.316Z,1.10
2022-08-26T18:27:38.012Z,1.30
2022-08-26T18:30:11.350Z,1.05
2022-08-26T18:32:42.217Z,1.08
2022-08-26T18:35:09.608Z,1.73
2022-08-26T18:37:36.351Z,1.20
2022-08-26T18:40:04.835Z,1.00
2022-08-26T18:42:31.579Z,1.00
2022-08-26T18:44:58.328Z,1.50
2022-08-26T18:47:24.995Z,1.20
2022-08-26T18:49:51.632Z,1.38
2022-08-26T18:52:19.985Z,1.30
2022-08-26T18:54:46.795Z,1.10
2022-08-26T18:57:15.755Z,1.17
2022-08-26T18:59:42.414Z,1.50
2022-08-26T19:02:09.833Z,1.40
2022-08-26T19:04:38.709Z,1.15
2022-08-26T19:07:06.284Z,1.20
2022-08-26T19:09:33.423Z,1.38
2022-08-26T19:12:01.618Z,1.27
2022-08-26T19:14:28.699Z,1.23
2022-08-26T19:16:55.746Z,1.42
2022-08-26T19:19:25.786Z,1.13
2022-08-26T19:21:53.161Z,1.27
2022-08-26T19:24:20.575Z,1.35
2022-08-26T19:26:58.632Z,1.67
2022-08-26T19:29:28.894Z,1.20
2022-08-26T19:31:55.941Z,1.30
2022-08-26T19:34:22.945Z,1.10
2022-08-26T19:36:51.884Z,1.38
2022-08-26T19:39:19.114Z,1.20
2022-08-26T19:41:46.153Z,1.40
2022-08-26T19:44:35.860Z,1.50
2022-08-26T19:47:03.839Z,1.38
2022-08-26T19:49:32.204Z,1.17
2022-08-26T19:51:59.647Z,1.45
2022-08-26T19:54:27.357Z,1.60
2022-08-26T19:56:54.755Z,1.95
2022-08-26T19:59:21.442Z,1.38
2022-08-26T20:02:00.466Z,2.25
2022-08-26T20:04:30.180Z,1.70
2022-08-26T20:07:00.364Z,1.77
2022-08-26T20:09:30.840Z,1.73
2022-08-26T20:11:57.516Z,1.50
2022-08-26T20:14:25.605Z,1.63
2022-08-26T20:16:52.327Z,1.52
2022-08-26T20:19:38.627Z,1.90
2022-08-26T20:22:05.787Z,1.98
2022-08-26T20:24:33.434Z,2.20
2022-08-26T20:27:03.246Z,1.65
2022-08-26T20:29:32.708Z,2.20
2022-08-26T20:31:59.418Z,1.95
2022-08-26T20:34:26.467Z,1.70
2022-08-26T20:36:53.198Z,2.13
2022-08-26T20:39:21.192Z,2.00
2022-08-26T20:41:48.599Z,2.13
2022-08-26T20:44:16.725Z,2.25
2022-08-26T20:46:43.928Z,2.10
2022-08-26T20:49:10.884Z,2.10
2022-08-26T20:51:38.827Z,2.00
2022-08-26T20:54:07.128Z,1.70
2022-08-26T20:56:34.640Z,2.20
2022-08-26T20:59:02.495Z,2.00
2022-08-26T21:01:34.627Z,2.17
2022-08-26T21:04:04.535Z,2.45
2022-08-26T21:06:33.881Z,2.53
2022-08-26T21:09:01.676Z,1.95
2022-08-26T21:11:29.246Z,2.55
2022-08-26T21:14:06.990Z,2.20
2022-08-26T21:16:44.111Z,2.45
2022-08-26T21:19:13.900Z,2.40
2022-08-26T21:21:42.827Z,2.63
2022-08-26T21:24:09.675Z,2.47
2022-08-26T21:26:37.071Z,2.70
2022-08-26T21:29:04.303Z,2.20
2022-08-26T21:31:32.203Z,2.53
2022-08-26T21:33:59.898Z,2.20
2022-08-26T21:36:26.852Z,2.45
2022-08-26T21:38:56.788Z,2.70
2022-08-26T21:41:23.946Z,2.58
2022-08-26T21:43:55.692Z,2.40
2022-08-26T21:46:24.709Z,3.00
2022-08-26T21:48:55.223Z,2.38
2022-08-26T21:51:24.616Z,2.35
2022-08-26T21:53:53.027Z,2.38
2022-08-26T21:56:21.159Z,2.17
2022-08-26T21:58:47.915Z,2.22
2022-08-26T22:01:18.069Z,2.50
2022-08-26T22:03:47.432Z,2.75
2022-08-26T22:06:20.760Z,3.63
2022-08-26T22:08:47.672Z,3.50
2022-08-26T22:11:15.644Z,3.63
2022-08-26T22:13:43.767Z,4.03
2022-08-26T22:16:10.603Z,4.07
2022-08-26T22:18:38.945Z,5.03
2022-08-26T22:21:08.769Z,4.30
2022-08-26T22:23:36.863Z,4.50
2022-08-26T22:26:07.864Z,4.53
2022-08-26T22:28:35.622Z,4.50
2022-08-26T22:31:04.836Z,4.88
2022-08-26T22:33:31.512Z,4.57
2022-08-26T22:35:58.108Z,5.20
2022-08-26T22:38:24.992Z,4.88
2022-08-26T22:40:56.072Z,5.72
2022-08-26T22:43:24.826Z,4.97
2022-08-26T22:45:53.170Z,5.28
2022-08-26T22:48:23.828Z,5.97
2022-08-26T22:50:59.577Z,6.10
2022-08-26T22:53:26.847Z,5.57
2022-08-26T22:55:54.287Z,5.43
2022-08-26T22:58:21.652Z,4.78
2022-08-26T23:00:57.844Z,5.55
2022-08-26T23:03:26.775Z,5.13
2022-08-26T23:05:53.704Z,5.25
2022-08-26T23:08:21.012Z,5.10
2022-08-26T23:10:49.380Z,5.05
2022-08-26T23:13:16.577Z,5.25
2022-08-26T23:15:44.779Z,5.57
2022-08-26T23:18:12.836Z,5.93
2022-08-26T23:20:40.200Z,5.53
2022-08-26T23:23:07.512Z,5.97
2022-08-26T23:25:34.424Z,5.55
2022-08-26T23:28:02.691Z,5.78
2022-08-26T23:30:31.508Z,6.35
2022-08-26T23:32:58.625Z,6.35
2022-08-26T23:35:25.920Z,6.07
2022-08-26T23:37:53.460Z,6.10
2022-08-26T23:40:27.979Z,6.05
2022-08-26T23:42:56.637Z,5.60
2022-08-26T23:45:27.159Z,5.93
2022-08-26T23:47:54.621Z,5.10
2022-08-26T23:50:49.984Z,5.60
2022-08-26T23:53:21.191Z,5.53
2022-08-26T23:55:50.797Z,5.90
2022-08-26T23:58:19.068Z,6.03
